createdAt,value
2022-12-18T00:01:34.728Z,13.15
2022-12-18T00:04:05.011Z,13.20
2022-12-18T00:06:33.655Z,13.10
2022-12-18T00:09:03.675Z,12.30
2022-12-18T00:11:32.048Z,12.55
2022-12-18T00:14:00.805Z,12.98
2022-12-18T00:16:31.020Z,12.50
2022-12-18T00:18:58.821Z,12.45
2022-12-18T00:21:27.105Z,12.38
2022-12-18T00:23:54.614Z,12.45
2022-12-18T00:26:25.172Z,11.95
2022-12-18T00:28:53.570Z,11.90
2022-12-18T00:31:24.107Z,12.25
2022-12-18T00:33:55.155Z,11.68
2022-12-18T00:36:26.318Z,12.00
2022-12-18T00:38:55.640Z,11.77
2022-12-18T00:41:42.268Z,11.38
2022-12-18T00:44:12.724Z,11.93
2022-12-18T00:46:40.168Z,12.02
2022-12-18T00:49:08.460Z,11.70
2022-12-18T00:51:36.247Z,11.40
2022-12-18T00:54:03.887Z,11.82
2022-12-18T00:56:31.719Z,12.00
2022-12-18T00:58:59.227Z,11.50
2022-12-18T01:01:26.632Z,11.43
2022-12-18T01:03:54.344Z,11.35
2022-12-18T01:06:21.653Z,12.02
2022-12-18T01:08:49.308Z,11.98
2022-12-18T01:11:19.010Z,11.05
2022-12-18T01:13:46.620Z,11.77
2022-12-18T01:16:15.819Z,11.25
2022-12-18T01:18:43.823Z,11.02
2022-12-18T01:21:16.070Z,11.35
2022-12-18T01:23:45.022Z,12.13
2022-12-18T01:26:16.121Z,11.45
2022-12-18T01:28:45.069Z,11.73
2022-12-18T01:31:21.486Z,11.23
2022-12-18T01:33:49.611Z,11.18
2022-12-18T01:36:28.600Z,11.38
2022-12-18T01:38:56.709Z,11.52
2022-12-18T01:41:26.988Z,12.13
2022-12-18T01:43:58.185Z,11.25
2022-12-18T01:46:27.357Z,12.40
2022-12-18T01:49:02.203Z,11.27
2022-12-18T01:51:31.290Z,10.80
2022-12-18T01:54:00.244Z,10.60
2022-12-18T01:56:27.703Z,10.88
2022-12-18T01:59:00.828Z,10.57
2022-12-18T02:01:31.049Z,10.95
2022-12-18T02:04:23.571Z,11.25
2022-12-18T02:07:14.259Z,11.10
2022-12-18T02:10:04.753Z,10.63
2022-12-18T02:12:49.310Z,10.60
2022-12-18T02:15:27.860Z,10.70
2022-12-18T02:18:04.307Z,10.48
2022-12-18T02:20:38.021Z,10.60
2022-12-18T02:23:31.219Z,10.65
2022-12-18T02:26:28.321Z,10.98
2022-12-18T02:29:00.805Z,10.85
2022-12-18T02:31:35.484Z,10.55
2022-12-18T02:34:07.617Z,10.85
2022-12-18T02:36:39.019Z,10.85
2022-12-18T02:39:10.000Z,10.93
2022-12-18T02:41:38.739Z,11.40
2022-12-18T02:44:11.907Z,11.50
2022-12-18T02:46:43.485Z,10.82
2022-12-18T02:49:42.837Z,10.90
2022-12-18T02:52:31.784Z,10.68
2022-12-18T02:55:09.768Z,11.18
2022-12-18T02:58:14.264Z,10.70
2022-12-18T03:01:03.917Z,10.57
2022-12-18T03:03:50.016Z,10.23
2022-12-18T03:06:26.239Z,10.45
2022-12-18T03:09:15.763Z,9.88
2022-12-18T03:12:09.688Z,9.75
2022-12-18T03:14:39.306Z,9.70
2022-12-18T03:17:14.513Z,10.68
2022-12-18T03:22:10.996Z,9.93
2022-12-18T03:24:40.505Z,11.23
2022-12-18T03:27:13.357Z,10.85
2022-12-18T03:29:49.101Z,11.18
2022-12-18T03:32:26.563Z,10.25
2022-12-18T03:34:58.639Z,10.43
2022-12-18T03:37:25.936Z,10.82
2022-12-18T03:39:53.611Z,11.05
2022-12-18T03:43:00.874Z,9.63
2022-12-18T03:45:37.295Z,10.18
2022-12-18T03:48:13.801Z,11.10
2022-12-18T03:50:50.691Z,10.23
2022-12-18T03:53:53.647Z,9.68
2022-12-18T03:56:26.348Z,10.50
2022-12-18T03:58:56.165Z,10.75
2022-12-18T04:01:29.628Z,10.55
2022-12-18T04:04:00.243Z,10.13
2022-12-18T04:06:30.374Z,11.48
2022-12-18T04:08:59.287Z,10.88
2022-12-18T04:11:26.882Z,9.95
2022-12-18T04:13:58.968Z,10.23
2022-12-18T04:16:27.348Z,10.32
2022-12-18T04:18:55.143Z,10.25
2022-12-18T04:21:23.624Z,9.60
2022-12-18T04:23:50.885Z,11.30
2022-12-18T04:26:18.501Z,9.57
2022-12-18T04:28:45.820Z,10.30
2022-12-18T04:31:14.352Z,10.65
2022-12-18T04:33:41.953Z,10.32
2022-12-18T04:36:09.845Z,11.35
2022-12-18T04:38:37.121Z,9.60
2022-12-18T04:41:05.205Z,11.07
2022-12-18T04:43:33.836Z,10.35
2022-12-18T04:46:09.284Z,10.60
2022-12-18T04:48:37.460Z,10.55
2022-12-18T04:51:06.468Z,10.13
2022-12-18T04:53:33.935Z,10.45
2022-12-18T04:56:10.489Z,10.55
2022-12-18T04:58:38.792Z,9.93
2022-12-18T05:01:08.370Z,10.18
2022-12-18T05:03:36.502Z,10.20
2022-12-18T05:06:05.707Z,10.05
2022-12-18T05:08:33.304Z,10.30
2022-12-18T05:11:10.532Z,10.25
2022-12-18T05:13:39.263Z,10.57
2022-12-18T05:16:10.103Z,10.23
2022-12-18T05:18:37.447Z,10.43
2022-12-18T05:21:05.344Z,10.55
2022-12-18T05:23:32.587Z,10.73
2022-12-18T05:26:02.767Z,10.18
2022-12-18T05:28:31.984Z,9.77
2022-12-18T05:31:01.992Z,10.32
2022-12-18T05:33:35.390Z,10.13
2022-12-18T05:36:06.373Z,10.95
2022-12-18T05:38:35.814Z,10.63
2022-12-18T05:41:04.984Z,10.90
2022-12-18T05:43:32.364Z,10.73
2022-12-18T05:46:04.736Z,10.18
2022-12-18T05:48:32.009Z,10.32
2022-12-18T05:51:08.390Z,10.32
2022-12-18T05:53:37.521Z,10.40
2022-12-18T05:56:08.353Z,10.85
2022-12-18T05:58:36.019Z,10.98
2022-12-18T06:01:16.603Z,10.48
2022-12-18T06:03:45.080Z,10.43
2022-12-18T06:06:18.666Z,10.90
2022-12-18T06:08:46.715Z,10.32
2022-12-18T06:11:18.935Z,10.00
2022-12-18T06:13:47.372Z,9.98
2022-12-18T06:16:14.950Z,10.30
2022-12-18T06:18:42.432Z,11.05
2022-12-18T06:21:10.072Z,10.18
2022-12-18T06:23:37.695Z,10.40
2022-12-18T06:26:07.849Z,10.32
2022-12-18T06:28:35.341Z,11.50
2022-12-18T06:31:04.608Z,10.38
2022-12-18T06:33:32.848Z,11.45
2022-12-18T06:36:11.536Z,10.55
2022-12-18T06:38:43.234Z,10.73
2022-12-18T06:41:13.473Z,10.88
2022-12-18T06:43:41.326Z,10.73
2022-12-18T06:46:09.744Z,10.48
2022-12-18T06:48:37.041Z,11.00
2022-12-18T06:51:04.857Z,10.93
2022-12-18T06:53:33.096Z,11.10
2022-12-18T06:56:09.856Z,11.70
2022-12-18T06:58:39.480Z,12.32
2022-12-18T07:01:09.953Z,12.98
2022-12-18T07:03:38.800Z,13.13
2022-12-18T07:06:07.204Z,12.52
2022-12-18T07:08:34.534Z,12.25
2022-12-18T07:11:05.285Z,12.15
2022-12-18T07:13:32.802Z,12.65
2022-12-18T07:16:12.922Z,11.75
2022-12-18T07:18:43.644Z,12.60
2022-12-18T07:21:13.980Z,11.73
2022-12-18T07:23:41.660Z,11.70
2022-12-18T07:26:13.275Z,12.05
2022-12-18T07:28:42.052Z,11.68
2022-12-18T07:31:13.194Z,11.32
2022-12-18T07:33:40.796Z,12.02
2022-12-18T07:36:10.864Z,12.20
2022-12-18T07:38:38.553Z,11.85
2022-12-18T07:41:08.832Z,12.15
2022-12-18T07:43:37.338Z,11.32
2022-12-18T07:46:06.560Z,12.23
2022-12-18T07:48:33.930Z,11.93
2022-12-18T07:51:03.643Z,12.18
2022-12-18T07:53:31.571Z,12.68
2022-12-18T07:56:25.889Z,12.38
2022-12-18T07:58:48.566Z,13.18
2022-12-18T08:01:16.799Z,12.82
2022-12-18T08:03:44.576Z,13.13
2022-12-18T08:06:12.107Z,13.50
2022-12-18T08:08:41.112Z,11.95
2022-12-18T08:11:08.885Z,13.40
2022-12-18T08:13:36.354Z,12.63
2022-12-18T08:16:07.467Z,12.20
2022-12-18T08:18:37.084Z,12.45
2022-12-18T08:21:16.084Z,13.18
2022-12-18T08:23:44.127Z,12.88
2022-12-18T08:26:13.037Z,12.32
2022-12-18T08:28:41.008Z,12.23
2022-12-18T08:31:09.132Z,12.75
2022-12-18T08:33:38.924Z,12.30
2022-12-18T08:36:07.939Z,12.93
2022-12-18T08:38:35.265Z,12.77
2022-12-18T08:41:04.982Z,13.18
2022-12-18T08:43:52.384Z,12.73
2022-12-18T08:46:21.679Z,12.57
2022-12-18T08:48:52.186Z,12.68
2022-12-18T08:51:19.826Z,12.10
2022-12-18T08:53:47.945Z,13.52
2022-12-18T08:56:16.139Z,12.73
2022-12-18T08:58:43.749Z,13.10
2022-12-18T09:01:13.195Z,12.73
2022-12-18T09:03:41.547Z,13.65
2022-12-18T09:06:09.136Z,13.65
2022-12-18T09:08:37.949Z,12.90
2022-12-18T09:11:05.808Z,13.25
2022-12-18T09:13:33.344Z,12.65
2022-12-18T09:16:00.566Z,13.07
2022-12-18T09:18:28.140Z,13.32
2022-12-18T09:20:55.487Z,13.02
2022-12-18T09:23:23.576Z,13.90
2022-12-18T09:25:50.811Z,13.73
2022-12-18T09:28:20.081Z,14.10
2022-12-18T09:30:49.842Z,14.50
2022-12-18T09:33:18.067Z,14.55
2022-12-18T09:35:46.117Z,13.90
2022-12-18T09:38:16.803Z,14.55
2022-12-18T09:40:50.121Z,14.63
2022-12-18T09:43:28.111Z,13.60
2022-12-18T09:46:01.196Z,15.32
2022-12-18T09:48:36.276Z,14.85
2022-12-18T09:51:13.237Z,13.55
2022-12-18T09:53:45.347Z,14.60
2022-12-18T09:56:19.636Z,15.95
2022-12-18T09:58:56.210Z,14.63
2022-12-18T10:01:24.873Z,14.68
2022-12-18T10:03:55.848Z,14.55
2022-12-18T10:06:53.272Z,15.45
2022-12-18T10:09:20.863Z,14.18
2022-12-18T10:12:26.521Z,14.90
2022-12-18T10:15:02.285Z,14.82
2022-12-18T10:17:55.254Z,14.25
2022-12-18T10:20:52.170Z,13.95
2022-12-18T10:23:28.460Z,14.68
2022-12-18T10:26:04.556Z,15.80
2022-12-18T10:28:34.157Z,15.00
2022-12-18T10:31:01.980Z,14.85
2022-12-18T10:33:32.523Z,14.80
2022-12-18T10:36:01.139Z,15.50
2022-12-18T10:38:30.489Z,15.00
2022-12-18T10:41:27.627Z,14.82
2022-12-18T10:44:18.645Z,14.85
2022-12-18T10:46:49.059Z,14.15
2022-12-18T10:49:22.307Z,13.55
2022-12-18T10:51:50.375Z,14.88
2022-12-18T10:54:24.416Z,14.15
2022-12-18T10:56:52.003Z,14.80
2022-12-18T10:59:19.464Z,15.25
2022-12-18T11:01:59.914Z,14.48
2022-12-18T11:04:32.057Z,14.32
2022-12-18T11:07:08.120Z,14.75
2022-12-18T11:09:40.729Z,14.35
2022-12-18T11:12:11.389Z,14.15
2022-12-18T11:14:48.493Z,14.48
2022-12-18T11:17:36.711Z,14.63
2022-12-18T11:20:10.279Z,14.30
2022-12-18T11:22:39.195Z,14.60
2022-12-18T11:28:21.161Z,14.82
2022-12-18T11:30:48.551Z,14.15
2022-12-18T11:33:22.561Z,14.60
2022-12-18T11:36:06.210Z,14.65
2022-12-18T11:38:38.321Z,14.40
2022-12-18T11:41:24.398Z,14.63
2022-12-18T11:43:59.788Z,14.80
2022-12-18T11:46:37.146Z,14.38
2022-12-18T11:49:13.958Z,13.80
2022-12-18T11:51:52.879Z,14.73
2022-12-18T11:54:20.387Z,15.00
2022-12-18T11:56:52.429Z,14.80
2022-12-18T11:59:31.412Z,14.63
2022-12-18T12:02:25.115Z,14.60
2022-12-18T12:05:25.652Z,14.23
2022-12-18T12:07:53.416Z,13.85
2022-12-18T12:10:23.696Z,14.05
2022-12-18T12:13:21.548Z,13.52
2022-12-18T12:16:29.558Z,13.93
2022-12-18T12:19:02.452Z,13.98
2022-12-18T12:21:40.409Z,13.98
2022-12-18T12:24:45.367Z,13.75
2022-12-18T12:27:54.582Z,14.30
2022-12-18T12:30:31.642Z,14.07
2022-12-18T12:33:17.812Z,14.02
2022-12-18T12:35:47.985Z,13.77
2022-12-18T12:38:36.481Z,14.27
2022-12-18T12:41:32.715Z,13.98
2022-12-18T12:44:10.082Z,14.02
2022-12-18T12:46:42.585Z,14.00
2022-12-18T12:49:23.124Z,14.88
2022-12-18T12:52:15.471Z,13.35
2022-12-18T12:54:45.755Z,13.75
2022-12-18T12:57:26.230Z,15.05
2022-12-18T13:00:06.212Z,15.25
2022-12-18T13:02:52.153Z,14.70
2022-12-18T13:05:41.352Z,15.20
2022-12-18T13:08:11.498Z,14.18
2022-12-18T13:10:41.772Z,14.85
2022-12-18T13:13:10.996Z,13.35
2022-12-18T13:15:51.204Z,13.85
2022-12-18T13:18:20.750Z,13.43
2022-12-18T13:21:01.187Z,13.60
2022-12-18T13:23:37.770Z,13.80
2022-12-18T13:26:11.278Z,14.00
2022-12-18T13:28:47.713Z,13.68
2022-12-18T13:31:24.346Z,13.98
2022-12-18T13:36:39.593Z,14.10
2022-12-18T13:39:34.793Z,14.68
2022-12-18T13:42:06.924Z,13.75
2022-12-18T13:44:40.323Z,13.85
2022-12-18T13:47:38.400Z,14.15
2022-12-18T13:50:28.581Z,14.02
2022-12-18T13:53:00.268Z,15.48
2022-12-18T13:55:27.858Z,14.70
2022-12-18T13:58:05.955Z,14.40
2022-12-18T14:00:33.366Z,14.32
2022-12-18T14:03:01.222Z,14.00
2022-12-18T14:05:32.392Z,14.30
2022-12-18T14:08:06.933Z,15.07
2022-12-18T14:10:48.037Z,14.75
2022-12-18T14:13:41.934Z,14.63
2022-12-18T14:16:16.163Z,14.18
2022-12-18T14:19:01.956Z,14.65
2022-12-18T14:21:47.880Z,14.48
2022-12-18T14:24:19.703Z,14.48
2022-12-18T14:26:49.650Z,14.10
2022-12-18T14:29:29.806Z,14.65
2022-12-18T14:32:21.210Z,13.90
2022-12-18T14:34:51.455Z,14.40
2022-12-18T14:37:24.630Z,14.18
2022-12-18T14:40:04.413Z,15.35
2022-12-18T14:42:36.149Z,14.93
2022-12-18T14:45:42.273Z,15.38
2022-12-18T14:48:23.458Z,15.38
2022-12-18T14:51:03.597Z,16.13
2022-12-18T14:53:35.744Z,15.63
2022-12-18T14:56:13.236Z,15.38
2022-12-18T14:58:45.064Z,15.27
2022-12-18T15:01:23.895Z,15.38
2022-12-18T15:03:53.737Z,15.50
2022-12-18T15:06:33.562Z,16.02
2022-12-18T15:09:03.833Z,15.50
2022-12-18T15:11:47.177Z,16.08
2022-12-18T15:14:31.417Z,16.05
2022-12-18T15:17:00.909Z,16.33
2022-12-18T15:19:41.656Z,15.50
2022-12-18T15:22:30.553Z,15.98
2022-12-18T15:24:59.700Z,15.50
2022-12-18T15:27:36.781Z,15.45
2022-12-18T15:30:07.618Z,16.10
2022-12-18T15:32:37.559Z,15.75
2022-12-18T15:35:15.232Z,15.45
2022-12-18T15:37:43.725Z,15.80
2022-12-18T15:40:20.219Z,15.10
2022-12-18T15:43:07.827Z,16.50
2022-12-18T15:45:35.186Z,14.90
2022-12-18T15:48:19.069Z,15.10
2022-12-18T15:50:47.183Z,16.38
2022-12-18T15:53:16.184Z,16.00
2022-12-18T15:56:02.249Z,16.85
2022-12-18T15:58:31.117Z,15.73
2022-12-18T16:01:00.715Z,16.85
2022-12-18T16:03:28.451Z,16.58
2022-12-18T16:05:55.774Z,15.90
2022-12-18T16:08:24.399Z,16.98
2022-12-18T16:10:51.780Z,16.20
2022-12-18T16:13:21.243Z,17.95
2022-12-18T16:15:48.680Z,17.33
2022-12-18T16:18:16.413Z,17.73
2022-12-18T16:20:43.766Z,16.55
2022-12-18T16:23:11.319Z,17.60
2022-12-18T16:25:38.676Z,17.20
2022-12-18T16:28:06.445Z,16.90
2022-12-18T16:30:38.051Z,17.25
2022-12-18T16:33:07.554Z,17.77
2022-12-18T16:35:35.234Z,18.23
2022-12-18T16:38:02.773Z,17.90
2022-12-18T16:40:32.781Z,18.13
2022-12-18T16:43:00.318Z,18.35
2022-12-18T16:45:33.902Z,18.45
2022-12-18T16:48:01.664Z,18.65
2022-12-18T16:50:29.012Z,18.70
2022-12-18T16:52:56.607Z,18.02
2022-12-18T16:55:23.824Z,18.85
2022-12-18T16:57:51.339Z,18.10
2022-12-18T17:00:18.723Z,19.50
2022-12-18T17:02:46.906Z,18.73
2022-12-18T17:05:14.538Z,19.15
2022-12-18T17:07:42.130Z,18.85
2022-12-18T17:10:09.996Z,18.55
2022-12-18T17:12:37.641Z,19.75
2022-12-18T17:15:05.335Z,20.10
2022-12-18T17:17:33.541Z,19.65
2022-12-18T17:20:00.784Z,19.67
2022-12-18T17:22:28.413Z,20.60
2022-12-18T17:24:55.694Z,20.17
2022-12-18T17:27:23.369Z,21.00
2022-12-18T17:29:50.951Z,20.75
2022-12-18T17:32:18.555Z,21.75
2022-12-18T17:34:47.013Z,22.17
2022-12-18T17:37:15.674Z,22.60
2022-12-18T17:39:43.551Z,22.25
2022-12-18T17:42:15.484Z,22.67
2022-12-18T17:44:44.235Z,22.40
2022-12-18T17:47:13.492Z,22.70
2022-12-18T17:49:41.090Z,21.80
2022-12-18T17:52:08.824Z,23.33
2022-12-18T17:54:39.539Z,22.73
2022-12-18T17:57:06.856Z,23.33
2022-12-18T17:59:34.526Z,22.17
2022-12-18T18:02:02.190Z,23.10
2022-12-18T18:04:30.536Z,23.63
2022-12-18T18:06:57.857Z,22.83
2022-12-18T18:09:25.651Z,23.15
2022-12-18T18:12:11.875Z,23.80
2022-12-18T18:14:39.604Z,24.75
2022-12-18T18:17:07.124Z,24.67
2022-12-18T18:19:34.702Z,24.27
2022-12-18T18:22:03.108Z,25.55
2022-12-18T18:24:33.132Z,25.13
2022-12-18T18:27:00.487Z,27.02
2022-12-18T18:29:30.453Z,25.92
2022-12-18T18:31:58.845Z,25.63
2022-12-18T18:34:29.115Z,25.83
2022-12-18T18:36:56.679Z,26.33
2022-12-18T18:39:24.249Z,26.70
2022-12-18T18:41:51.719Z,26.88
2022-12-18T18:44:26.205Z,27.67
2022-12-18T18:46:58.323Z,27.33
2022-12-18T18:49:27.321Z,26.45
2022-12-18T18:51:56.148Z,26.08
2022-12-18T18:54:24.708Z,28.15
2022-12-18T18:59:39.815Z,28.20
2022-12-18T19:02:12.101Z,27.95
2022-12-18T19:04:44.971Z,26.35
2022-12-18T19:07:29.591Z,28.07
2022-12-18T19:10:04.180Z,27.65
2022-12-18T19:12:52.948Z,28.00
2022-12-18T19:15:20.603Z,29.33
2022-12-18T19:17:48.056Z,29.30
2022-12-18T19:20:15.943Z,30.38
2022-12-18T19:22:43.345Z,29.73
2022-12-18T19:25:14.144Z,30.05
2022-12-18T19:27:42.021Z,31.55
2022-12-18T19:30:10.414Z,29.98
2022-12-18T19:32:37.813Z,30.95
2022-12-18T19:35:05.863Z,30.55
2022-12-18T19:37:35.083Z,29.27
2022-12-18T19:40:09.121Z,30.60
2022-12-18T19:42:39.824Z,29.17
2022-12-18T19:45:08.133Z,29.52
2022-12-18T19:47:35.383Z,30.60
2022-12-18T19:50:03.121Z,29.50
2022-12-18T19:52:30.586Z,29.30
2022-12-18T19:54:58.287Z,30.13
2022-12-18T19:57:26.076Z,29.98
2022-12-18T19:59:53.615Z,29.23
2022-12-18T20:02:21.134Z,29.85
2022-12-18T20:04:49.927Z,29.38
2022-12-18T20:07:18.508Z,29.05
2022-12-18T20:09:46.068Z,28.13
2022-12-18T20:12:14.395Z,28.05
2022-12-18T20:14:42.203Z,28.48
2022-12-18T20:17:11.001Z,29.50
2022-12-18T20:19:39.136Z,29.30
2022-12-18T20:22:06.900Z,29.10
2022-12-18T20:24:34.498Z,28.00
2022-12-18T20:27:02.051Z,28.67
2022-12-18T20:29:29.649Z,28.55
2022-12-18T20:31:57.118Z,28.25
2022-12-18T20:34:24.773Z,26.65
2022-12-18T20:36:52.412Z,27.30
2022-12-18T20:39:21.209Z,26.20
2022-12-18T20:41:49.505Z,27.63
2022-12-18T20:44:23.040Z,27.33
2022-12-18T20:46:56.646Z,27.60
2022-12-18T20:49:26.436Z,26.42
2022-12-18T20:51:56.324Z,27.33
2022-12-18T20:54:26.793Z,26.65
2022-12-18T20:56:54.489Z,25.83
2022-12-18T20:59:23.249Z,27.60
2022-12-18T21:01:52.033Z,27.77
2022-12-18T21:04:20.401Z,28.20
2022-12-18T21:06:53.372Z,27.58
2022-12-18T21:09:25.545Z,28.23
2022-12-18T21:12:14.348Z,29.00
2022-12-18T21:14:44.274Z,27.08
2022-12-18T21:17:12.061Z,27.73
2022-12-18T21:19:40.446Z,27.60
2022-12-18T21:22:09.762Z,29.45
2022-12-18T21:24:37.816Z,29.38
2022-12-18T21:27:05.280Z,29.63
2022-12-18T21:29:33.320Z,29.58
2022-12-18T21:32:02.428Z,29.02
2022-12-18T21:34:31.468Z,29.70
2022-12-18T21:36:59.982Z,30.13
2022-12-18T21:39:29.285Z,31.02
2022-12-18T21:42:16.177Z,29.55
2022-12-18T21:44:46.751Z,31.77
2022-12-18T21:47:21.963Z,30.45
2022-12-18T21:49:52.706Z,31.30
2022-12-18T21:52:30.745Z,30.65
2022-12-18T21:55:09.157Z,30.42
2022-12-18T21:57:40.113Z,31.25
2022-12-18T22:00:18.465Z,31.08
2022-12-18T22:02:48.489Z,32.05
2022-12-18T22:05:36.019Z,31.13
2022-12-18T22:08:03.260Z,32.20
2022-12-18T22:10:31.135Z,32.22
2022-12-18T22:12:58.557Z,31.70
2022-12-18T22:15:26.129Z,31.33
2022-12-18T22:17:58.716Z,30.83
2022-12-18T22:20:29.759Z,32.80
2022-12-18T22:22:57.793Z,30.23
2022-12-18T22:25:25.596Z,31.65
2022-12-18T22:28:11.657Z,31.70
2022-12-18T22:30:39.174Z,31.40
2022-12-18T22:33:06.844Z,31.17
2022-12-18T22:35:34.849Z,32.33
2022-12-18T22:38:02.181Z,31.27
2022-12-18T22:40:30.125Z,30.27
2022-12-18T22:42:57.659Z,30.35
2022-12-18T22:45:26.363Z,30.50
2022-12-18T22:47:53.718Z,30.70
2022-12-18T22:50:21.530Z,31.45
2022-12-18T22:52:48.856Z,30.55
2022-12-18T22:55:16.389Z,30.02
2022-12-18T22:57:47.050Z,30.08
2022-12-18T23:00:23.826Z,30.27
2022-12-18T23:02:59.218Z,30.42
2022-12-18T23:05:30.533Z,30.27
2022-12-18T23:07:58.546Z,30.55
2022-12-18T23:10:27.221Z,30.25
2022-12-18T23:12:54.494Z,29.15
2022-12-18T23:15:27.929Z,30.42
2022-12-18T23:17:59.418Z,29.67
2022-12-18T23:20:27.788Z,28.67
2022-12-18T23:22:55.132Z,28.85
2022-12-18T23:25:23.537Z,28.73
2022-12-18T23:27:51.020Z,30.02
2022-12-18T23:30:18.823Z,29.17
2022-12-18T23:32:46.119Z,29.35
2022-12-18T23:35:15.602Z,30.45
2022-12-18T23:38:00.075Z,30.02
2022-12-18T23:40:29.671Z,28.83
2022-12-18T23:42:58.502Z,27.92
2022-12-18T23:45:26.063Z,29.10
2022-12-18T23:47:53.494Z,28.90
2022-12-18T23:50:24.045Z,29.90
2022-12-18T23:53:05.076Z,29.60
2022-12-18T23:55:38.601Z,28.85
2022-12-18T23:58:06.023Z,28.30
